KAAT

Details ICAO KAAT
Name Alturas Muni
Region United States
Timezone America/Los_Angeles (UTC-8.0)
Plans Departing 2
Arriving 1
Stats Elevation 4,374 ft / 1,333 m (AMSL)
Location 41.482993° -120.565353°
Runways 2
Magnetic Variation 13.987° E
Sunrise 2017-12-13 15:21:49 UTC / 2017-12-13 07:21:49 Local
Sunset 2017-12-14 00:34:15 UTC / 2017-12-13 16:34:15 Local
Advertisement - Login to hide

Runways

ID Width Length Bearing (true) Bearing (mag) Surface Threshold Offset Overrun Length
03 59 ft / 18 m 3,142 ft / 958 m 46.21° 32.22° Asphalt 253 ft / 77 m 0 ft / 0 m
13 49 ft / 15 m 4,305 ft / 1,312 m 148.44° 134.45° Asphalt 200 ft / 61 m 0 ft / 0 m
21 59 ft / 18 m 3,142 ft / 958 m 226.21° 212.22° Asphalt 318 ft / 97 m 180 ft / 55 m
31 49 ft / 15 m 4,305 ft / 1,312 m 328.44° 314.45° Asphalt 0 ft / 0 m 0 ft / 0 m

Map

Weather


0- 5 10 15 20 25 30 35+ Temperature / ° C

Clouds and Precipitation
Forecast for 2017-12-14 00:00 UTC. Updated 2 hours ago

Ground ~20,000 ft ~40,000 ft Winds

METAR

KAAT 132355Z AUTO 00000KT 10SM CLR 09/M06 A3026 RMK AO2 SLP260 T00891061 10106 21017 55003 TSNO

TAF

Not found

Frequencies

Recorded 124.17 MHz ASOS
Unicom 122.80 MHz CTAF/UNICOM
Warning: Do not use this data for real-world aviation or navigation. No guarantee of current accuracy is given.